sensor_id;sensor_type;location;lat;lon;timestamp;P1;durP1;ratioP1;P2;durP2;ratioP2
56653;SDS011;45096;52.302;4.634;2022-10-16T00:01:28;1.50;;;0.98;;
56653;SDS011;45096;52.302;4.634;2022-10-16T00:03:56;1.50;;;0.93;;
56653;SDS011;45096;52.302;4.634;2022-10-16T00:06:23;1.08;;;0.98;;
56653;SDS011;45096;52.302;4.634;2022-10-16T00:08:49;1.58;;;1.10;;
56653;SDS011;45096;52.302;4.634;2022-10-16T00:11:16;1.08;;;0.98;;
56653;SDS011;45096;52.302;4.634;2022-10-16T00:13:43;1.05;;;0.90;;
56653;SDS011;45096;52.302;4.634;2022-10-16T00:16:10;1.08;;;0.98;;
56653;SDS011;45096;52.302;4.634;2022-10-16T00:18:36;1.25;;;1.15;;
56653;SDS011;45096;52.302;4.634;2022-10-16T00:21:04;1.08;;;1.05;;
56653;SDS011;45096;52.302;4.634;2022-10-16T00:23:30;2.55;;;1.38;;
56653;SDS011;45096;52.302;4.634;2022-10-16T00:25:55;2.38;;;1.20;;
56653;SDS011;45096;52.302;4.634;2022-10-16T00:28:21;1.67;;;0.98;;
56653;SDS011;45096;52.302;4.634;2022-10-16T00:30:46;5.47;;;1.48;;
56653;SDS011;45096;52.302;4.634;2022-10-16T00:33:12;1.38;;;1.25;;
56653;SDS011;45096;52.302;4.634;2022-10-16T00:35:37;1.85;;;1.00;;
56653;SDS011;45096;52.302;4.634;2022-10-16T00:38:04;2.45;;;1.02;;
56653;SDS011;45096;52.302;4.634;2022-10-16T00:40:29;1.58;;;1.48;;
56653;SDS011;45096;52.302;4.634;2022-10-16T00:42:55;1.00;;;1.00;;
56653;SDS011;45096;52.302;4.634;2022-10-16T00:45:20;3.28;;;1.23;;
56653;SDS011;45096;52.302;4.634;2022-10-16T00:47:46;0.90;;;0.90;;
56653;SDS011;45096;52.302;4.634;2022-10-16T00:50:13;3.45;;;1.10;;
56653;SDS011;45096;52.302;4.634;2022-10-16T00:52:43;2.25;;;1.30;;
56653;SDS011;45096;52.302;4.634;2022-10-16T00:55:12;1.92;;;0.85;;
56653;SDS011;45096;52.302;4.634;2022-10-16T00:57:38;2.10;;;0.90;;
56653;SDS011;45096;52.302;4.634;2022-10-16T01:00:05;1.10;;;1.10;;
56653;SDS011;45096;52.302;4.634;2022-10-16T01:02:33;1.58;;;0.80;;
56653;SDS011;45096;52.302;4.634;2022-10-16T01:04:59;1.40;;;1.30;;
56653;SDS011;45096;52.302;4.634;2022-10-16T01:07:29;0.88;;;0.88;;
56653;SDS011;45096;52.302;4.634;2022-10-16T01:10:02;1.67;;;1.35;;
56653;SDS011;45096;52.302;4.634;2022-10-16T01:12:36;1.42;;;1.33;;
56653;SDS011;45096;52.302;4.634;2022-10-16T01:15:07;3.33;;;1.00;;
56653;SDS011;45096;52.302;4.634;2022-10-16T01:17:37;0.93;;;0.93;;
56653;SDS011;45096;52.302;4.634;2022-10-16T01:20:08;1.23;;;0.90;;
56653;SDS011;45096;52.302;4.634;2022-10-16T01:22:38;1.95;;;1.00;;
56653;SDS011;45096;52.302;4.634;2022-10-16T01:25:16;2.60;;;1.10;;
56653;SDS011;45096;52.302;4.634;2022-10-16T01:27:45;2.92;;;1.27;;
56653;SDS011;45096;52.302;4.634;2022-10-16T01:30:12;1.70;;;1.05;;
56653;SDS011;45096;52.302;4.634;2022-10-16T01:32:40;1.80;;;1.27;;
56653;SDS011;45096;52.302;4.634;2022-10-16T01:35:08;1.10;;;1.00;;
56653;SDS011;45096;52.302;4.634;2022-10-16T01:37:36;1.00;;;1.00;;
56653;SDS011;45096;52.302;4.634;2022-10-16T01:40:05;1.00;;;1.00;;
56653;SDS011;45096;52.302;4.634;2022-10-16T01:42:32;1.17;;;0.90;;
56653;SDS011;45096;52.302;4.634;2022-10-16T01:45:01;1.27;;;0.93;;
56653;SDS011;45096;52.302;4.634;2022-10-16T01:47:27;0.85;;;0.85;;
56653;SDS011;45096;52.302;4.634;2022-10-16T01:49:55;1.10;;;1.00;;
56653;SDS011;45096;52.302;4.634;2022-10-16T01:52:23;2.50;;;1.05;;
56653;SDS011;45096;52.302;4.634;2022-10-16T01:54:50;1.25;;;1.15;;
56653;SDS011;45096;52.302;4.634;2022-10-16T01:57:17;1.08;;;1.00;;
56653;SDS011;45096;52.302;4.634;2022-10-16T01:59:44;1.75;;;0.90;;
56653;SDS011;45096;52.302;4.634;2022-10-16T02:02:12;1.25;;;1.20;;
56653;SDS011;45096;52.302;4.634;2022-10-16T02:04:40;0.80;;;0.80;;
56653;SDS011;45096;52.302;4.634;2022-10-16T02:07:08;2.15;;;0.93;;
56653;SDS011;45096;52.302;4.634;2022-10-16T02:09:34;1.02;;;1.02;;
56653;SDS011;45096;52.302;4.634;2022-10-16T02:12:00;0.70;;;0.70;;
56653;SDS011;45096;52.302;4.634;2022-10-16T02:14:29;3.30;;;1.17;;
56653;SDS011;45096;52.302;4.634;2022-10-16T02:16:54;1.38;;;0.90;;
56653;SDS011;45096;52.302;4.634;2022-10-16T02:19:21;1.00;;;0.88;;
56653;SDS011;45096;52.302;4.634;2022-10-16T02:21:48;2.58;;;1.10;;
56653;SDS011;45096;52.302;4.634;2022-10-16T02:24:16;0.80;;;0.80;;
56653;SDS011;45096;52.302;4.634;2022-10-16T02:26:46;0.95;;;0.95;;
56653;SDS011;45096;52.302;4.634;2022-10-16T02:29:16;1.20;;;0.90;;
56653;SDS011;45096;52.302;4.634;2022-10-16T02:31:43;1.52;;;1.10;;
56653;SDS011;45096;52.302;4.634;2022-10-16T02:34:12;0.93;;;0.90;;
56653;SDS011;45096;52.302;4.634;2022-10-16T02:36:39;0.98;;;0.98;;
56653;SDS011;45096;52.302;4.634;2022-10-16T02:39:05;1.90;;;1.00;;
56653;SDS011;45096;52.302;4.634;2022-10-16T02:41:30;2.00;;;1.00;;
56653;SDS011;45096;52.302;4.634;2022-10-16T02:43:56;1.17;;;1.17;;
56653;SDS011;45096;52.302;4.634;2022-10-16T02:46:22;0.93;;;0.90;;
56653;SDS011;45096;52.302;4.634;2022-10-16T02:48:47;1.00;;;1.00;;
56653;SDS011;45096;52.302;4.634;2022-10-16T02:51:12;1.77;;;0.90;;
56653;SDS011;45096;52.302;4.634;2022-10-16T02:53:39;0.88;;;0.80;;
56653;SDS011;45096;52.302;4.634;2022-10-16T02:56:05;0.82;;;0.80;;
56653;SDS011;45096;52.302;4.634;2022-10-16T02:58:30;2.42;;;1.05;;
56653;SDS011;45096;52.302;4.634;2022-10-16T03:00:56;1.30;;;0.80;;
56653;SDS011;45096;52.302;4.634;2022-10-16T03:03:21;1.10;;;1.10;;
56653;SDS011;45096;52.302;4.634;2022-10-16T03:05:46;1.10;;;1.10;;
56653;SDS011;45096;52.302;4.634;2022-10-16T03:08:12;0.80;;;0.80;;
56653;SDS011;45096;52.302;4.634;2022-10-16T03:10:39;1.58;;;1.48;;
56653;SDS011;45096;52.302;4.634;2022-10-16T03:13:04;1.80;;;1.70;;
56653;SDS011;45096;52.302;4.634;2022-10-16T03:15:30;1.88;;;1.77;;
56653;SDS011;45096;52.302;4.634;2022-10-16T03:17:56;2.20;;;1.48;;
56653;SDS011;45096;52.302;4.634;2022-10-16T03:20:22;1.60;;;1.50;;
56653;SDS011;45096;52.302;4.634;2022-10-16T03:22:47;1.98;;;1.88;;
56653;SDS011;45096;52.302;4.634;2022-10-16T03:25:13;3.45;;;1.83;;
56653;SDS011;45096;52.302;4.634;2022-10-16T03:27:40;2.00;;;1.65;;
56653;SDS011;45096;52.302;4.634;2022-10-16T03:30:05;4.18;;;1.70;;
56653;SDS011;45096;52.302;4.634;2022-10-16T03:32:32;1.70;;;1.52;;
56653;SDS011;45096;52.302;4.634;2022-10-16T03:34:57;1.50;;;1.27;;
56653;SDS011;45096;52.302;4.634;2022-10-16T03:37:23;1.70;;;1.55;;
56653;SDS011;45096;52.302;4.634;2022-10-16T03:39:48;2.38;;;2.17;;
56653;SDS011;45096;52.302;4.634;2022-10-16T03:42:13;1.65;;;1.52;;
56653;SDS011;45096;52.302;4.634;2022-10-16T03:44:40;4.27;;;2.17;;
56653;SDS011;45096;52.302;4.634;2022-10-16T03:47:06;2.47;;;2.10;;
56653;SDS011;45096;52.302;4.634;2022-10-16T03:49:31;2.28;;;2.08;;
56653;SDS011;45096;52.302;4.634;2022-10-16T03:51:56;2.53;;;1.88;;
56653;SDS011;45096;52.302;4.634;2022-10-16T03:54:22;1.77;;;1.48;;
56653;SDS011;45096;52.302;4.634;2022-10-16T03:56:47;4.15;;;1.67;;
56653;SDS011;45096;52.302;4.634;2022-10-16T03:59:13;1.50;;;1.48;;
56653;SDS011;45096;52.302;4.634;2022-10-16T04:01:40;1.60;;;1.50;;
56653;SDS011;45096;52.302;4.634;2022-10-16T04:04:05;1.55;;;1.40;;
56653;SDS011;45096;52.302;4.634;2022-10-16T04:06:31;2.95;;;1.50;;
56653;SDS011;45096;52.302;4.634;2022-10-16T04:08:56;1.50;;;1.40;;
56653;SDS011;45096;52.302;4.634;2022-10-16T04:11:21;1.17;;;1.17;;
56653;SDS011;45096;52.302;4.634;2022-10-16T04:13:47;1.85;;;1.20;;
56653;SDS011;45096;52.302;4.634;2022-10-16T04:16:12;1.30;;;1.20;;
56653;SDS011;45096;52.302;4.634;2022-10-16T04:18:39;1.27;;;1.17;;
56653;SDS011;45096;52.302;4.634;2022-10-16T04:21:05;2.17;;;1.67;;
56653;SDS011;45096;52.302;4.634;2022-10-16T04:23:31;1.00;;;1.00;;
56653;SDS011;45096;52.302;4.634;2022-10-16T04:25:57;1.50;;;1.40;;
56653;SDS011;45096;52.302;4.634;2022-10-16T04:28:22;2.45;;;1.55;;
56653;SDS011;45096;52.302;4.634;2022-10-16T04:30:48;1.17;;;1.10;;
56653;SDS011;45096;52.302;4.634;2022-10-16T04:33:13;2.00;;;1.67;;
56653;SDS011;45096;52.302;4.634;2022-10-16T04:35:40;3.95;;;1.38;;
56653;SDS011;45096;52.302;4.634;2022-10-16T04:38:05;1.75;;;1.20;;
56653;SDS011;45096;52.302;4.634;2022-10-16T04:40:31;1.20;;;1.10;;
56653;SDS011;45096;52.302;4.634;2022-10-16T04:42:56;2.10;;;1.17;;
56653;SDS011;45096;52.302;4.634;2022-10-16T04:45:21;1.15;;;1.00;;
56653;SDS011;45096;52.302;4.634;2022-10-16T04:47:47;1.42;;;1.30;;
56653;SDS011;45096;52.302;4.634;2022-10-16T04:50:12;2.08;;;1.23;;
56653;SDS011;45096;52.302;4.634;2022-10-16T04:52:39;3.83;;;1.20;;
56653;SDS011;45096;52.302;4.634;2022-10-16T04:55:05;3.35;;;1.20;;
56653;SDS011;45096;52.302;4.634;2022-10-16T04:57:30;5.63;;;1.20;;
56653;SDS011;45096;52.302;4.634;2022-10-16T04:59:56;1.17;;;1.10;;
56653;SDS011;45096;52.302;4.634;2022-10-16T05:02:21;2.15;;;1.13;;
56653;SDS011;45096;52.302;4.634;2022-10-16T05:04:47;8.40;;;5.03;;
56653;SDS011;45096;52.302;4.634;2022-10-16T05:07:12;31.80;;;19.05;;
56653;SDS011;45096;52.302;4.634;2022-10-16T05:09:39;13.10;;;8.10;;
56653;SDS011;45096;52.302;4.634;2022-10-16T05:12:04;9.45;;;6.15;;
56653;SDS011;45096;52.302;4.634;2022-10-16T05:14:30;7.47;;;4.97;;
56653;SDS011;45096;52.302;4.634;2022-10-16T05:16:55;5.45;;;4.20;;
56653;SDS011;45096;52.302;4.634;2022-10-16T05:19:21;6.00;;;3.80;;
56653;SDS011;45096;52.302;4.634;2022-10-16T05:21:46;7.28;;;3.78;;
56653;SDS011;45096;52.302;4.634;2022-10-16T05:24:11;6.88;;;3.42;;
56653;SDS011;45096;52.302;4.634;2022-10-16T05:26:38;7.28;;;3.47;;
56653;SDS011;45096;52.302;4.634;2022-10-16T05:29:04;5.30;;;3.63;;
56653;SDS011;45096;52.302;4.634;2022-10-16T05:31:29;4.15;;;3.17;;
56653;SDS011;45096;52.302;4.634;2022-10-16T05:33:57;4.20;;;3.45;;
56653;SDS011;45096;52.302;4.634;2022-10-16T05:36:23;4.30;;;2.85;;
56653;SDS011;45096;52.302;4.634;2022-10-16T05:38:50;3.85;;;3.28;;
56653;SDS011;45096;52.302;4.634;2022-10-16T05:41:15;3.00;;;2.70;;
56653;SDS011;45096;52.302;4.634;2022-10-16T05:43:42;4.28;;;3.03;;
56653;SDS011;45096;52.302;4.634;2022-10-16T05:46:08;4.93;;;3.15;;
56653;SDS011;45096;52.302;4.634;2022-10-16T05:48:33;2.88;;;2.35;;
56653;SDS011;45096;52.302;4.634;2022-10-16T05:50:59;3.83;;;2.20;;
56653;SDS011;45096;52.302;4.634;2022-10-16T05:53:26;6.43;;;2.88;;
56653;SDS011;45096;52.302;4.634;2022-10-16T05:55:52;5.43;;;3.10;;
56653;SDS011;45096;52.302;4.634;2022-10-16T05:58:18;3.70;;;2.85;;
56653;SDS011;45096;52.302;4.634;2022-10-16T06:00:45;2.58;;;2.33;;
56653;SDS011;45096;52.302;4.634;2022-10-16T06:03:18;3.47;;;2.33;;
56653;SDS011;45096;52.302;4.634;2022-10-16T06:05:43;2.17;;;2.00;;
56653;SDS011;45096;52.302;4.634;2022-10-16T06:08:08;2.33;;;2.17;;
56653;SDS011;45096;52.302;4.634;2022-10-16T06:10:34;2.72;;;1.80;;
56653;SDS011;45096;52.302;4.634;2022-10-16T06:12:59;2.22;;;2.03;;
56653;SDS011;45096;52.302;4.634;2022-10-16T06:15:25;2.53;;;1.60;;
56653;SDS011;45096;52.302;4.634;2022-10-16T06:17:51;2.50;;;1.77;;
56653;SDS011;45096;52.302;4.634;2022-10-16T06:20:17;4.05;;;1.88;;
56653;SDS011;45096;52.302;4.634;2022-10-16T06:22:42;1.85;;;1.75;;
56653;SDS011;45096;52.302;4.634;2022-10-16T06:25:08;2.10;;;1.80;;
56653;SDS011;45096;52.302;4.634;2022-10-16T06:27:33;3.42;;;2.70;;
56653;SDS011;45096;52.302;4.634;2022-10-16T06:29:59;8.55;;;5.75;;
56653;SDS011;45096;52.302;4.634;2022-10-16T06:32:24;3.20;;;2.80;;
56653;SDS011;45096;52.302;4.634;2022-10-16T06:34:51;2.53;;;2.33;;
56653;SDS011;45096;52.302;4.634;2022-10-16T06:37:16;2.70;;;2.30;;
56653;SDS011;45096;52.302;4.634;2022-10-16T06:39:42;3.97;;;2.13;;
56653;SDS011;45096;52.302;4.634;2022-10-16T06:42:07;2.90;;;2.15;;
56653;SDS011;45096;52.302;4.634;2022-10-16T06:44:32;2.42;;;2.10;;
56653;SDS011;45096;52.302;4.634;2022-10-16T06:46:58;2.30;;;1.52;;
56653;SDS011;45096;52.302;4.634;2022-10-16T06:49:23;3.67;;;1.83;;
56653;SDS011;45096;52.302;4.634;2022-10-16T06:51:50;1.98;;;1.80;;
56653;SDS011;45096;52.302;4.634;2022-10-16T06:54:15;4.38;;;2.25;;
56653;SDS011;45096;52.302;4.634;2022-10-16T06:56:41;11.07;;;7.22;;
56653;SDS011;45096;52.302;4.634;2022-10-16T06:59:06;7.88;;;5.88;;
56653;SDS011;45096;52.302;4.634;2022-10-16T07:01:32;11.88;;;7.03;;
56653;SDS011;45096;52.302;4.634;2022-10-16T07:03:57;7.38;;;5.57;;
56653;SDS011;45096;52.302;4.634;2022-10-16T07:06:24;7.18;;;4.93;;
56653;SDS011;45096;52.302;4.634;2022-10-16T07:08:51;10.43;;;6.03;;
56653;SDS011;45096;52.302;4.634;2022-10-16T07:11:18;7.30;;;4.90;;
56653;SDS011;45096;52.302;4.634;2022-10-16T07:13:44;7.05;;;3.90;;
56653;SDS011;45096;52.302;4.634;2022-10-16T07:16:11;6.32;;;3.67;;
56653;SDS011;45096;52.302;4.634;2022-10-16T07:18:37;7.95;;;3.90;;
56653;SDS011;45096;52.302;4.634;2022-10-16T07:21:03;6.32;;;4.22;;
56653;SDS011;45096;52.302;4.634;2022-10-16T07:23:29;3.75;;;3.00;;
56653;SDS011;45096;52.302;4.634;2022-10-16T07:25:56;3.97;;;3.15;;
56653;SDS011;45096;52.302;4.634;2022-10-16T07:28:21;5.65;;;2.85;;
56653;SDS011;45096;52.302;4.634;2022-10-16T07:30:47;5.40;;;4.15;;
56653;SDS011;45096;52.302;4.634;2022-10-16T07:33:12;5.80;;;4.80;;
56653;SDS011;45096;52.302;4.634;2022-10-16T07:35:38;9.15;;;3.90;;
56653;SDS011;45096;52.302;4.634;2022-10-16T07:38:03;5.10;;;3.28;;
56653;SDS011;45096;52.302;4.634;2022-10-16T07:40:28;4.75;;;2.70;;
56653;SDS011;45096;52.302;4.634;2022-10-16T07:42:55;4.38;;;3.10;;
56653;SDS011;45096;52.302;4.634;2022-10-16T07:45:21;4.35;;;2.33;;
56653;SDS011;45096;52.302;4.634;2022-10-16T07:47:46;6.53;;;3.03;;
56653;SDS011;45096;52.302;4.634;2022-10-16T07:50:11;3.05;;;2.08;;
56653;SDS011;45096;52.302;4.634;2022-10-16T07:52:37;5.28;;;2.65;;
56653;SDS011;45096;52.302;4.634;2022-10-16T07:55:02;2.65;;;2.00;;
56653;SDS011;45096;52.302;4.634;2022-10-16T07:57:28;3.08;;;2.00;;
56653;SDS011;45096;52.302;4.634;2022-10-16T07:59:55;3.25;;;1.90;;
56653;SDS011;45096;52.302;4.634;2022-10-16T08:02:20;3.80;;;2.20;;
56653;SDS011;45096;52.302;4.634;2022-10-16T08:04:46;2.75;;;1.85;;
56653;SDS011;45096;52.302;4.634;2022-10-16T08:07:11;6.03;;;4.63;;
56653;SDS011;45096;52.302;4.634;2022-10-16T08:09:37;5.32;;;3.40;;
56653;SDS011;45096;52.302;4.634;2022-10-16T08:12:02;5.18;;;2.88;;
56653;SDS011;45096;52.302;4.634;2022-10-16T08:14:28;3.40;;;2.40;;
56653;SDS011;45096;52.302;4.634;2022-10-16T08:16:54;2.75;;;2.35;;
56653;SDS011;45096;52.302;4.634;2022-10-16T08:19:20;3.42;;;2.15;;
56653;SDS011;45096;52.302;4.634;2022-10-16T08:21:46;4.82;;;2.25;;
56653;SDS011;45096;52.302;4.634;2022-10-16T08:24:12;2.10;;;1.80;;
56653;SDS011;45096;52.302;4.634;2022-10-16T08:26:37;5.28;;;1.70;;
56653;SDS011;45096;52.302;4.634;2022-10-16T08:29:03;2.92;;;1.90;;
56653;SDS011;45096;52.302;4.634;2022-10-16T08:31:28;5.05;;;1.83;;
56653;SDS011;45096;52.302;4.634;2022-10-16T08:33:55;5.18;;;1.88;;
56653;SDS011;45096;52.302;4.634;2022-10-16T08:36:20;4.05;;;1.75;;
56653;SDS011;45096;52.302;4.634;2022-10-16T08:38:47;3.17;;;1.95;;
56653;SDS011;45096;52.302;4.634;2022-10-16T08:41:25;5.68;;;1.85;;
56653;SDS011;45096;52.302;4.634;2022-10-16T08:46:49;5.85;;;3.05;;
56653;SDS011;45096;52.302;4.634;2022-10-16T08:49:23;4.82;;;2.08;;
56653;SDS011;45096;52.302;4.634;2022-10-16T08:51:48;2.78;;;1.95;;
56653;SDS011;45096;52.302;4.634;2022-10-16T08:54:18;2.83;;;1.70;;
56653;SDS011;45096;52.302;4.634;2022-10-16T08:56:48;3.92;;;1.67;;
56653;SDS011;45096;52.302;4.634;2022-10-16T08:59:13;8.18;;;2.30;;
56653;SDS011;45096;52.302;4.634;2022-10-16T09:01:41;8.75;;;2.40;;
56653;SDS011;45096;52.302;4.634;2022-10-16T09:07:09;4.97;;;1.90;;
56653;SDS011;45096;52.302;4.634;2022-10-16T09:09:46;7.32;;;1.85;;
56653;SDS011;45096;52.302;4.634;2022-10-16T09:12:19;5.82;;;1.50;;
56653;SDS011;45096;52.302;4.634;2022-10-16T09:14:52;5.88;;;1.80;;
56653;SDS011;45096;52.302;4.634;2022-10-16T09:17:29;4.55;;;2.05;;
56653;SDS011;45096;52.302;4.634;2022-10-16T09:20:08;3.83;;;1.85;;
56653;SDS011;45096;52.302;4.634;2022-10-16T09:22:41;3.33;;;1.67;;
56653;SDS011;45096;52.302;4.634;2022-10-16T09:25:10;7.03;;;1.98;;
56653;SDS011;45096;52.302;4.634;2022-10-16T09:27:37;2.28;;;1.83;;
56653;SDS011;45096;52.302;4.634;2022-10-16T09:30:06;6.32;;;1.92;;
56653;SDS011;45096;52.302;4.634;2022-10-16T09:32:37;5.63;;;1.83;;
56653;SDS011;45096;52.302;4.634;2022-10-16T09:35:09;12.23;;;2.97;;
56653;SDS011;45096;52.302;4.634;2022-10-16T09:37:36;5.25;;;1.90;;
56653;SDS011;45096;52.302;4.634;2022-10-16T09:40:02;6.63;;;2.00;;
56653;SDS011;45096;52.302;4.634;2022-10-16T09:42:28;4.57;;;2.35;;
56653;SDS011;45096;52.302;4.634;2022-10-16T09:44:56;9.43;;;2.63;;
56653;SDS011;45096;52.302;4.634;2022-10-16T09:47:23;13.15;;;2.35;;
56653;SDS011;45096;52.302;4.634;2022-10-16T09:49:50;5.32;;;3.45;;
56653;SDS011;45096;52.302;4.634;2022-10-16T09:52:18;4.13;;;2.40;;
56653;SDS011;45096;52.302;4.634;2022-10-16T09:54:49;5.03;;;1.77;;
56653;SDS011;45096;52.302;4.634;2022-10-16T09:57:15;10.95;;;2.33;;
56653;SDS011;45096;52.302;4.634;2022-10-16T09:59:45;7.95;;;1.90;;
56653;SDS011;45096;52.302;4.634;2022-10-16T10:02:11;7.07;;;2.13;;
56653;SDS011;45096;52.302;4.634;2022-10-16T10:04:40;7.55;;;2.38;;
56653;SDS011;45096;52.302;4.634;2022-10-16T10:07:06;6.43;;;2.17;;
56653;SDS011;45096;52.302;4.634;2022-10-16T10:09:44;7.35;;;3.20;;
56653;SDS011;45096;52.302;4.634;2022-10-16T10:12:16;10.07;;;3.33;;
56653;SDS011;45096;52.302;4.634;2022-10-16T10:14:43;11.40;;;3.70;;
56653;SDS011;45096;52.302;4.634;2022-10-16T10:17:12;7.55;;;2.97;;
56653;SDS011;45096;52.302;4.634;2022-10-16T10:19:40;11.77;;;3.25;;
56653;SDS011;45096;52.302;4.634;2022-10-16T10:28:24;10.45;;;2.00;;
56653;SDS011;45096;52.302;4.634;2022-10-16T10:30:59;8.98;;;3.10;;
56653;SDS011;45096;52.302;4.634;2022-10-16T10:33:28;11.98;;;3.17;;
56653;SDS011;45096;52.302;4.634;2022-10-16T10:36:01;11.45;;;2.65;;
56653;SDS011;45096;52.302;4.634;2022-10-16T10:38:37;11.48;;;4.00;;
56653;SDS011;45096;52.302;4.634;2022-10-16T10:41:10;5.05;;;2.28;;
56653;SDS011;45096;52.302;4.634;2022-10-16T10:44:07;8.45;;;3.47;;
56653;SDS011;45096;52.302;4.634;2022-10-16T10:46:38;13.30;;;3.60;;
56653;SDS011;45096;52.302;4.634;2022-10-16T10:49:09;10.02;;;3.45;;
56653;SDS011;45096;52.302;4.634;2022-10-16T10:51:44;7.72;;;4.05;;
56653;SDS011;45096;52.302;4.634;2022-10-16T10:54:19;12.43;;;3.25;;
56653;SDS011;45096;52.302;4.634;2022-10-16T10:56:49;8.15;;;3.55;;
56653;SDS011;45096;52.302;4.634;2022-10-16T10:59:32;10.88;;;2.67;;
56653;SDS011;45096;52.302;4.634;2022-10-16T11:02:04;11.73;;;2.38;;
56653;SDS011;45096;52.302;4.634;2022-10-16T11:04:41;7.15;;;2.78;;
56653;SDS011;45096;52.302;4.634;2022-10-16T11:07:15;11.35;;;2.53;;
56653;SDS011;45096;52.302;4.634;2022-10-16T11:09:44;7.30;;;2.33;;
56653;SDS011;45096;52.302;4.634;2022-10-16T11:12:11;9.13;;;2.30;;
56653;SDS011;45096;52.302;4.634;2022-10-16T11:14:42;7.93;;;2.38;;
56653;SDS011;45096;52.302;4.634;2022-10-16T11:17:11;9.02;;;2.10;;
56653;SDS011;45096;52.302;4.634;2022-10-16T11:19:39;7.00;;;1.90;;
56653;SDS011;45096;52.302;4.634;2022-10-16T11:22:09;7.03;;;2.20;;
56653;SDS011;45096;52.302;4.634;2022-10-16T11:24:41;8.55;;;2.15;;
56653;SDS011;45096;52.302;4.634;2022-10-16T11:27:11;5.07;;;1.92;;
56653;SDS011;45096;52.302;4.634;2022-10-16T11:29:44;7.90;;;2.25;;
56653;SDS011;45096;52.302;4.634;2022-10-16T11:32:15;5.43;;;1.90;;
56653;SDS011;45096;52.302;4.634;2022-10-16T11:34:47;9.50;;;2.33;;
56653;SDS011;45096;52.302;4.634;2022-10-16T11:37:14;9.23;;;2.00;;
56653;SDS011;45096;52.302;4.634;2022-10-16T11:39:44;3.88;;;2.15;;
56653;SDS011;45096;52.302;4.634;2022-10-16T11:42:10;5.88;;;1.80;;
56653;SDS011;45096;52.302;4.634;2022-10-16T11:44:45;5.72;;;1.88;;
56653;SDS011;45096;52.302;4.634;2022-10-16T11:47:21;3.38;;;1.83;;
56653;SDS011;45096;52.302;4.634;2022-10-16T11:49:51;7.82;;;2.50;;
56653;SDS011;45096;52.302;4.634;2022-10-16T11:52:20;6.43;;;2.05;;
56653;SDS011;45096;52.302;4.634;2022-10-16T11:54:52;8.00;;;1.60;;
56653;SDS011;45096;52.302;4.634;2022-10-16T11:57:22;5.10;;;1.65;;
56653;SDS011;45096;52.302;4.634;2022-10-16T11:59:50;4.70;;;2.47;;
56653;SDS011;45096;52.302;4.634;2022-10-16T12:02:24;9.02;;;2.55;;
56653;SDS011;45096;52.302;4.634;2022-10-16T12:04:56;6.97;;;2.42;;
56653;SDS011;45096;52.302;4.634;2022-10-16T12:07:31;6.75;;;1.80;;
56653;SDS011;45096;52.302;4.634;2022-10-16T12:10:09;7.03;;;1.60;;
56653;SDS011;45096;52.302;4.634;2022-10-16T12:12:37;5.57;;;1.65;;
56653;SDS011;45096;52.302;4.634;2022-10-16T12:15:17;9.10;;;2.17;;
56653;SDS011;45096;52.302;4.634;2022-10-16T12:17:45;6.25;;;1.73;;
56653;SDS011;45096;52.302;4.634;2022-10-16T12:20:22;7.90;;;2.28;;
56653;SDS011;45096;52.302;4.634;2022-10-16T12:22:52;9.23;;;1.92;;
56653;SDS011;45096;52.302;4.634;2022-10-16T12:25:21;5.15;;;2.03;;
56653;SDS011;45096;52.302;4.634;2022-10-16T12:27:53;5.57;;;1.90;;
56653;SDS011;45096;52.302;4.634;2022-10-16T12:30:20;4.47;;;1.80;;
56653;SDS011;45096;52.302;4.634;2022-10-16T12:32:52;7.78;;;1.95;;
56653;SDS011;45096;52.302;4.634;2022-10-16T12:35:19;6.72;;;1.70;;
56653;SDS011;45096;52.302;4.634;2022-10-16T12:37:46;6.88;;;1.65;;
56653;SDS011;45096;52.302;4.634;2022-10-16T12:40:12;4.15;;;1.58;;
56653;SDS011;45096;52.302;4.634;2022-10-16T12:42:40;7.25;;;1.77;;
56653;SDS011;45096;52.302;4.634;2022-10-16T12:45:21;6.55;;;1.42;;
56653;SDS011;45096;52.302;4.634;2022-10-16T12:47:50;4.38;;;1.40;;
56653;SDS011;45096;52.302;4.634;2022-10-16T12:50:28;8.30;;;2.17;;
56653;SDS011;45096;52.302;4.634;2022-10-16T12:52:56;5.20;;;1.98;;
56653;SDS011;45096;52.302;4.634;2022-10-16T12:55:21;8.75;;;1.60;;
56653;SDS011;45096;52.302;4.634;2022-10-16T12:57:54;3.17;;;1.42;;
56653;SDS011;45096;52.302;4.634;2022-10-16T13:00:28;5.40;;;1.92;;
56653;SDS011;45096;52.302;4.634;2022-10-16T13:03:02;7.65;;;2.30;;
56653;SDS011;45096;52.302;4.634;2022-10-16T13:05:59;6.88;;;1.92;;
56653;SDS011;45096;52.302;4.634;2022-10-16T13:08:38;8.13;;;2.20;;
56653;SDS011;45096;52.302;4.634;2022-10-16T13:11:14;4.45;;;1.40;;
56653;SDS011;45096;52.302;4.634;2022-10-16T13:13:47;5.60;;;1.85;;
56653;SDS011;45096;52.302;4.634;2022-10-16T13:16:21;3.78;;;1.50;;
56653;SDS011;45096;52.302;4.634;2022-10-16T13:18:53;3.63;;;1.27;;
56653;SDS011;45096;52.302;4.634;2022-10-16T13:21:30;5.07;;;1.48;;
56653;SDS011;45096;52.302;4.634;2022-10-16T13:24:00;6.35;;;2.55;;
56653;SDS011;45096;52.302;4.634;2022-10-16T13:26:29;6.22;;;2.90;;
56653;SDS011;45096;52.302;4.634;2022-10-16T13:29:00;5.88;;;2.80;;
56653;SDS011;45096;52.302;4.634;2022-10-16T13:31:26;8.18;;;3.67;;
56653;SDS011;45096;52.302;4.634;2022-10-16T13:33:51;11.18;;;4.35;;
56653;SDS011;45096;52.302;4.634;2022-10-16T13:36:18;9.15;;;3.80;;
56653;SDS011;45096;52.302;4.634;2022-10-16T13:38:45;6.78;;;2.90;;
56653;SDS011;45096;52.302;4.634;2022-10-16T13:41:13;8.60;;;2.45;;
56653;SDS011;45096;52.302;4.634;2022-10-16T13:43:42;5.75;;;2.88;;
56653;SDS011;45096;52.302;4.634;2022-10-16T13:46:12;8.20;;;2.35;;
56653;SDS011;45096;52.302;4.634;2022-10-16T13:48:39;5.47;;;2.70;;
56653;SDS011;45096;52.302;4.634;2022-10-16T13:51:05;5.95;;;2.22;;
56653;SDS011;45096;52.302;4.634;2022-10-16T13:53:35;5.97;;;1.95;;
56653;SDS011;45096;52.302;4.634;2022-10-16T13:56:04;4.70;;;2.70;;
56653;SDS011;45096;52.302;4.634;2022-10-16T13:58:31;7.90;;;2.22;;
56653;SDS011;45096;52.302;4.634;2022-10-16T14:00:57;3.58;;;2.15;;
56653;SDS011;45096;52.302;4.634;2022-10-16T14:03:25;7.30;;;2.60;;
56653;SDS011;45096;52.302;4.634;2022-10-16T14:05:52;8.10;;;2.25;;
56653;SDS011;45096;52.302;4.634;2022-10-16T14:08:18;7.35;;;2.40;;
56653;SDS011;45096;52.302;4.634;2022-10-16T14:10:46;5.13;;;2.55;;
56653;SDS011;45096;52.302;4.634;2022-10-16T14:13:14;3.35;;;2.00;;
56653;SDS011;45096;52.302;4.634;2022-10-16T14:15:45;4.53;;;2.00;;
56653;SDS011;45096;52.302;4.634;2022-10-16T14:18:13;5.88;;;1.98;;
56653;SDS011;45096;52.302;4.634;2022-10-16T14:20:45;3.47;;;1.45;;
56653;SDS011;45096;52.302;4.634;2022-10-16T14:23:18;7.53;;;2.08;;
56653;SDS011;45096;52.302;4.634;2022-10-16T14:25:46;9.00;;;2.00;;
56653;SDS011;45096;52.302;4.634;2022-10-16T14:28:14;5.07;;;2.05;;
56653;SDS011;45096;52.302;4.634;2022-10-16T14:30:48;6.35;;;1.75;;
56653;SDS011;45096;52.302;4.634;2022-10-16T14:33:19;4.05;;;1.42;;
56653;SDS011;45096;52.302;4.634;2022-10-16T14:35:56;8.25;;;2.60;;
56653;SDS011;45096;52.302;4.634;2022-10-16T14:38:25;2.47;;;1.58;;
56653;SDS011;45096;52.302;4.634;2022-10-16T14:40:50;8.30;;;2.03;;
56653;SDS011;45096;52.302;4.634;2022-10-16T14:43:17;8.43;;;1.63;;
56653;SDS011;45096;52.302;4.634;2022-10-16T14:45:49;6.30;;;2.22;;
56653;SDS011;45096;52.302;4.634;2022-10-16T14:48:16;3.60;;;1.80;;
56653;SDS011;45096;52.302;4.634;2022-10-16T14:50:42;6.80;;;1.58;;
56653;SDS011;45096;52.302;4.634;2022-10-16T14:53:09;8.68;;;1.65;;
56653;SDS011;45096;52.302;4.634;2022-10-16T14:55:36;3.90;;;1.40;;
56653;SDS011;45096;52.302;4.634;2022-10-16T14:58:01;5.03;;;1.63;;
56653;SDS011;45096;52.302;4.634;2022-10-16T15:00:27;7.25;;;1.92;;
56653;SDS011;45096;52.302;4.634;2022-10-16T15:02:52;5.97;;;1.80;;
56653;SDS011;45096;52.302;4.634;2022-10-16T15:05:19;3.97;;;1.80;;